createdAt,value
2019-05-22T00:02:06.353Z,24.70
2019-05-22T00:04:39.908Z,24.70
2019-05-22T00:07:13.594Z,24.70
2019-05-22T00:09:47.315Z,24.70
2019-05-22T00:12:20.624Z,24.70
2019-05-22T00:14:53.967Z,24.70
2019-05-22T00:17:30.340Z,24.70
2019-05-22T00:20:04.495Z,24.70
2019-05-22T00:22:38.827Z,24.70
2019-05-22T00:25:15.373Z,24.70
2019-05-22T00:27:51.734Z,24.70
2019-05-22T00:30:26.803Z,24.70
2019-05-22T00:33:01.738Z,24.70
2019-05-22T00:35:34.915Z,24.70
2019-05-22T00:38:08.870Z,24.70
2019-05-22T00:40:47.616Z,24.70
2019-05-22T00:43:22.864Z,24.70
2019-05-22T00:45:55.609Z,24.70
2019-05-22T00:48:29.777Z,24.70
2019-05-22T00:51:02.924Z,24.70
2019-05-22T00:53:37.352Z,24.70
2019-05-22T00:56:12.210Z,24.70
2019-05-22T00:58:46.532Z,24.70
2019-05-22T01:01:19.677Z,24.70
2019-05-22T01:03:52.167Z,24.70
2019-05-22T01:06:28.356Z,24.70
2019-05-22T01:09:03.710Z,24.70
2019-05-22T01:11:37.449Z,24.70
2019-05-22T01:14:10.636Z,24.80
2019-05-22T01:16:44.205Z,24.80
2019-05-22T01:19:17.608Z,24.80
2019-05-22T01:21:50.284Z,24.90
2019-05-22T01:24:24.102Z,24.90
2019-05-22T01:26:58.502Z,24.90
2019-05-22T01:29:32.551Z,24.90
2019-05-22T01:32:08.285Z,25.00
2019-05-22T01:34:41.530Z,25.00
2019-05-22T01:37:15.668Z,25.00
2019-05-22T01:40:08.200Z,25.00
2019-05-22T01:42:42.445Z,25.10
2019-05-22T01:45:17.225Z,25.10
2019-05-22T01:48:12.551Z,25.10
2019-05-22T01:50:49.833Z,25.20
2019-05-22T01:53:48.088Z,25.30
2019-05-22T01:56:21.376Z,25.30
2019-05-22T01:58:55.602Z,25.40
2019-05-22T02:01:28.576Z,25.40
2019-05-22T02:04:01.668Z,25.50
2019-05-22T02:06:48.917Z,25.60
2019-05-22T02:09:25.875Z,25.60
2019-05-22T02:12:02.776Z,25.70
2019-05-22T02:14:36.356Z,25.70
2019-05-22T02:17:11.165Z,25.80
2019-05-22T02:19:44.305Z,25.80
2019-05-22T02:22:18.273Z,25.90
2019-05-22T02:24:53.071Z,25.90
2019-05-22T02:27:27.374Z,25.90
2019-05-22T02:30:00.443Z,26.00
2019-05-22T02:32:35.076Z,26.00
2019-05-22T02:35:12.105Z,26.00
2019-05-22T02:37:58.536Z,26.00
2019-05-22T02:40:34.244Z,26.10
2019-05-22T02:43:08.225Z,26.10
2019-05-22T02:45:40.941Z,26.10
2019-05-22T02:48:36.374Z,26.10
2019-05-22T02:51:09.802Z,26.10
2019-05-22T02:53:43.340Z,26.10
2019-05-22T02:56:16.449Z,26.10
2019-05-22T02:58:50.737Z,26.10
2019-05-22T03:01:23.137Z,26.20
2019-05-22T03:04:15.630Z,26.20
2019-05-22T03:06:48.800Z,26.20
2019-05-22T03:09:23.573Z,26.30
2019-05-22T03:12:00.341Z,26.30
2019-05-22T03:14:34.984Z,26.30
2019-05-22T03:17:10.702Z,26.40
2019-05-22T03:20:04.795Z,26.40
2019-05-22T03:22:41.577Z,26.50
2019-05-22T03:25:16.733Z,26.60
2019-05-22T03:27:53.570Z,26.60
2019-05-22T03:30:30.666Z,26.70
2019-05-22T03:33:06.511Z,26.80
2019-05-22T03:35:42.096Z,27.00
2019-05-22T03:38:14.889Z,27.00
2019-05-22T03:40:50.997Z,27.10
2019-05-22T03:43:26.909Z,27.20
2019-05-22T03:46:20.269Z,27.20
2019-05-22T03:48:53.267Z,27.30
2019-05-22T03:51:26.134Z,27.30
2019-05-22T03:54:18.678Z,27.40
2019-05-22T03:56:51.945Z,27.50
2019-05-22T03:59:24.713Z,27.60
2019-05-22T04:01:57.664Z,27.70
2019-05-22T04:04:33.536Z,27.70
2019-05-22T04:07:07.916Z,27.90
2019-05-22T04:09:41.689Z,27.90
2019-05-22T04:12:14.287Z,28.00
2019-05-22T04:15:07.098Z,28.10
2019-05-22T04:17:40.862Z,28.10
2019-05-22T04:20:16.159Z,28.20
2019-05-22T04:22:49.311Z,28.20
2019-05-22T04:25:22.325Z,28.20
2019-05-22T04:27:54.878Z,28.20
2019-05-22T04:30:36.888Z,28.20
2019-05-22T04:33:09.161Z,28.20
2019-05-22T04:35:42.798Z,28.20
2019-05-22T04:38:16.483Z,28.20
2019-05-22T04:40:51.443Z,28.20
2019-05-22T04:43:25.124Z,28.20
2019-05-22T04:46:00.410Z,28.30
2019-05-22T04:48:33.864Z,28.40
2019-05-22T04:51:10.414Z,28.40
2019-05-22T04:53:43.268Z,28.40
2019-05-22T04:56:15.290Z,28.40
2019-05-22T04:58:47.494Z,28.40
2019-05-22T05:01:20.932Z,28.40
2019-05-22T05:04:12.616Z,28.40
2019-05-22T05:06:47.015Z,28.50
2019-05-22T05:09:20.428Z,28.50
2019-05-22T05:11:52.711Z,28.60
2019-05-22T05:14:24.987Z,28.70
2019-05-22T05:16:57.611Z,28.70
2019-05-22T05:19:29.986Z,28.80
2019-05-22T05:22:02.195Z,28.80
2019-05-22T05:24:34.394Z,28.90
2019-05-22T05:27:07.911Z,28.90
2019-05-22T05:29:40.270Z,29.00
2019-05-22T05:32:12.832Z,29.00
2019-05-22T05:34:49.140Z,29.10
2019-05-22T05:37:27.663Z,29.20
2019-05-22T05:40:01.409Z,29.30
2019-05-22T05:42:33.634Z,29.30
2019-05-22T05:45:07.465Z,29.40
2019-05-22T05:47:40.723Z,29.60
2019-05-22T05:50:15.356Z,29.70
2019-05-22T05:53:09.154Z,29.90
2019-05-22T05:55:44.476Z,30.10
2019-05-22T05:58:22.339Z,30.20
2019-05-22T06:00:58.137Z,30.30
2019-05-22T06:03:35.144Z,30.30
2019-05-22T06:06:10.617Z,30.30
2019-05-22T06:08:43.844Z,30.30
2019-05-22T06:11:19.726Z,30.40
2019-05-22T06:13:52.647Z,30.40
2019-05-22T06:16:28.052Z,30.50
2019-05-22T06:19:00.797Z,30.70
2019-05-22T06:21:52.910Z,30.80
2019-05-22T06:24:29.548Z,30.90
2019-05-22T06:27:07.110Z,31.10
2019-05-22T06:29:43.750Z,31.20
2019-05-22T06:32:19.887Z,31.30
2019-05-22T06:34:53.697Z,31.50
2019-05-22T06:37:29.496Z,31.60
2019-05-22T06:40:02.468Z,31.70
2019-05-22T06:42:35.077Z,31.90
2019-05-22T06:45:08.200Z,31.90
2019-05-22T06:47:41.199Z,31.90
2019-05-22T06:50:13.933Z,32.00
2019-05-22T06:52:47.483Z,32.10
2019-05-22T06:55:19.647Z,32.20
2019-05-22T06:57:51.982Z,32.20
2019-05-22T07:00:25.235Z,32.30
2019-05-22T07:02:58.100Z,32.30
2019-05-22T07:05:36.241Z,32.30
2019-05-22T07:08:10.232Z,32.40
2019-05-22T07:10:43.778Z,32.50
2019-05-22T07:16:05.080Z,32.70
2019-05-22T07:18:37.215Z,32.70
2019-05-22T07:21:10.173Z,32.70
2019-05-22T07:23:42.882Z,32.70
2019-05-22T07:26:15.632Z,32.80
2019-05-22T07:28:48.784Z,32.80
2019-05-22T07:31:21.427Z,32.80
2019-05-22T07:33:54.990Z,32.90
2019-05-22T07:36:29.908Z,32.90
2019-05-22T07:39:21.651Z,33.00
2019-05-22T07:41:54.155Z,33.10
2019-05-22T07:44:46.209Z,33.20
2019-05-22T07:47:23.213Z,33.30
2019-05-22T07:50:14.738Z,33.40
2019-05-22T07:52:48.349Z,33.40
2019-05-22T07:55:23.317Z,33.40
2019-05-22T07:57:59.110Z,33.50
2019-05-22T08:00:31.741Z,33.50
2019-05-22T08:03:05.515Z,33.50
2019-05-22T08:05:40.555Z,33.50
2019-05-22T08:08:34.334Z,33.50
2019-05-22T08:11:10.578Z,33.50
2019-05-22T08:13:56.125Z,33.40
2019-05-22T08:16:30.001Z,33.50
2019-05-22T08:19:02.865Z,33.50
2019-05-22T08:21:35.194Z,33.50
2019-05-22T08:24:09.134Z,33.50
2019-05-22T08:26:54.331Z,33.60
2019-05-22T08:29:25.872Z,33.70
2019-05-22T08:31:59.057Z,33.80
2019-05-22T08:34:31.437Z,34.00
2019-05-22T08:37:26.143Z,34.00
2019-05-22T08:39:58.394Z,34.20
2019-05-22T08:42:35.333Z,34.30
2019-05-22T08:45:15.363Z,34.40
2019-05-22T08:47:47.980Z,34.50
2019-05-22T08:50:22.032Z,34.50
2019-05-22T08:52:55.268Z,34.50
2019-05-22T08:55:27.755Z,34.40
2019-05-22T08:58:00.518Z,34.40
2019-05-22T09:00:34.229Z,34.40
2019-05-22T09:03:06.437Z,34.40
2019-05-22T09:05:38.576Z,34.40
2019-05-22T09:08:11.045Z,34.50
2019-05-22T09:10:43.735Z,34.60
2019-05-22T09:13:21.918Z,34.60
2019-05-22T09:15:53.888Z,34.60
2019-05-22T09:18:27.066Z,34.60
2019-05-22T09:21:00.982Z,34.40
2019-05-22T09:23:33.474Z,34.30
2019-05-22T09:26:07.418Z,34.10
2019-05-22T09:28:39.994Z,33.90
2019-05-22T09:31:12.278Z,33.70
2019-05-22T09:33:44.714Z,33.60
2019-05-22T09:36:21.455Z,33.50
2019-05-22T09:38:54.625Z,33.30
2019-05-22T09:41:27.659Z,33.20
2019-05-22T09:44:00.081Z,33.20
2019-05-22T09:46:52.796Z,33.20
2019-05-22T09:49:30.605Z,33.20
2019-05-22T09:52:03.203Z,33.30
2019-05-22T09:54:35.935Z,33.30
2019-05-22T09:57:09.030Z,33.30
2019-05-22T09:59:41.128Z,33.20
2019-05-22T10:02:15.134Z,33.20
2019-05-22T10:04:47.605Z,33.20
2019-05-22T10:07:21.480Z,33.20
2019-05-22T10:09:54.016Z,33.20
2019-05-22T10:12:36.351Z,33.10
2019-05-22T10:15:11.190Z,33.10
2019-05-22T10:17:46.788Z,33.00
2019-05-22T10:20:20.495Z,32.90
2019-05-22T10:23:15.985Z,32.80
2019-05-22T10:25:46.332Z,32.80
2019-05-22T10:28:19.555Z,32.70
2019-05-22T10:30:52.357Z,32.60
2019-05-22T10:33:25.798Z,32.50
2019-05-22T10:35:58.010Z,32.40
2019-05-22T10:38:31.771Z,32.30
2019-05-22T10:41:04.158Z,32.20
2019-05-22T10:43:36.587Z,32.20
2019-05-22T10:46:10.008Z,32.10
2019-05-22T10:48:43.139Z,32.00
2019-05-22T10:51:15.404Z,32.00
2019-05-22T10:53:48.352Z,32.10
2019-05-22T10:56:20.992Z,32.10
2019-05-22T10:58:53.629Z,32.20
2019-05-22T11:01:45.272Z,32.30
2019-05-22T11:04:19.781Z,32.30
2019-05-22T11:06:51.973Z,32.40
2019-05-22T11:09:24.841Z,32.40
2019-05-22T11:11:57.584Z,32.50
2019-05-22T11:14:30.730Z,32.50
2019-05-22T11:17:03.148Z,32.50
2019-05-22T11:19:35.725Z,32.40
2019-05-22T11:22:08.496Z,32.40
2019-05-22T11:24:41.155Z,32.20
2019-05-22T11:27:13.792Z,32.20
2019-05-22T11:29:46.569Z,32.00
2019-05-22T11:32:18.677Z,31.90
2019-05-22T11:34:51.152Z,31.80
2019-05-22T11:37:24.021Z,31.60
2019-05-22T11:39:56.408Z,31.50
2019-05-22T11:42:28.653Z,31.40
2019-05-22T11:45:00.903Z,31.20
2019-05-22T11:47:32.997Z,31.20
2019-05-22T11:50:14.484Z,31.00
2019-05-22T11:52:47.770Z,30.90
2019-05-22T11:55:20.389Z,30.80
2019-05-22T11:57:53.584Z,30.80
2019-05-22T12:00:27.512Z,30.70
2019-05-22T12:03:02.315Z,30.60
2019-05-22T12:05:36.283Z,30.50
2019-05-22T12:08:09.218Z,30.50
2019-05-22T12:10:41.362Z,30.40
2019-05-22T12:13:14.862Z,30.40
2019-05-22T12:15:47.332Z,30.30
2019-05-22T12:18:20.588Z,30.30
2019-05-22T12:20:52.721Z,30.20
2019-05-22T12:23:25.405Z,30.20
2019-05-22T12:25:57.967Z,30.10
2019-05-22T12:28:30.279Z,30.00
2019-05-22T12:31:03.161Z,30.00
2019-05-22T12:33:35.628Z,29.90
2019-05-22T12:36:15.230Z,29.90
2019-05-22T12:38:47.392Z,29.80
2019-05-22T12:41:21.265Z,29.70
2019-05-22T12:43:54.012Z,29.70
2019-05-22T12:46:26.929Z,29.70
2019-05-22T12:48:59.789Z,29.70
2019-05-22T12:51:35.658Z,29.60
2019-05-22T12:54:08.610Z,29.60
2019-05-22T12:56:40.762Z,29.60
2019-05-22T12:59:14.709Z,29.50
2019-05-22T13:01:48.355Z,29.50
2019-05-22T13:04:22.710Z,29.50
2019-05-22T13:06:55.797Z,29.50
2019-05-22T13:09:29.171Z,29.40
2019-05-22T13:12:01.606Z,29.40
2019-05-22T13:14:34.185Z,29.40
2019-05-22T13:17:17.023Z,29.40
2019-05-22T13:19:51.099Z,29.40
2019-05-22T13:22:25.695Z,29.40
2019-05-22T13:24:59.829Z,29.30
2019-05-22T13:27:34.180Z,29.30
2019-05-22T13:30:09.556Z,29.30
2019-05-22T13:32:44.628Z,29.20
2019-05-22T13:35:18.734Z,29.20
2019-05-22T13:40:36.024Z,29.20
2019-05-22T13:43:08.730Z,29.10
2019-05-22T13:45:41.290Z,29.10
2019-05-22T13:48:14.404Z,29.10
2019-05-22T13:50:47.863Z,29.10
2019-05-22T13:53:20.737Z,29.10
2019-05-22T13:55:53.619Z,29.10
2019-05-22T13:58:28.562Z,29.10
2019-05-22T14:01:08.880Z,29.00
2019-05-22T14:03:41.180Z,29.00
2019-05-22T14:06:21.021Z,29.00
2019-05-22T14:08:53.994Z,29.00
2019-05-22T14:11:27.371Z,29.00
2019-05-22T14:14:00.280Z,29.00
2019-05-22T14:16:48.647Z,29.00
2019-05-22T14:19:15.973Z,29.00
2019-05-22T14:21:51.509Z,28.90
2019-05-22T14:24:22.195Z,28.90
2019-05-22T14:26:58.680Z,28.90
2019-05-22T14:29:31.474Z,28.90
2019-05-22T14:32:05.586Z,28.90
2019-05-22T14:34:38.289Z,28.90
2019-05-22T14:37:12.244Z,28.90
2019-05-22T14:39:45.086Z,28.90
2019-05-22T14:42:17.799Z,28.90
2019-05-22T14:44:50.130Z,28.80
2019-05-22T14:47:23.039Z,28.80
2019-05-22T14:49:55.148Z,28.80
2019-05-22T14:52:27.618Z,28.80
2019-05-22T14:54:59.880Z,28.80
2019-05-22T14:57:32.329Z,28.70
2019-05-22T15:00:05.300Z,28.70
2019-05-22T15:02:37.953Z,28.70
2019-05-22T15:05:12.483Z,28.70
2019-05-22T15:07:44.496Z,28.70
2019-05-22T15:10:24.090Z,28.70
2019-05-22T15:12:56.535Z,28.70
2019-05-22T15:15:29.885Z,28.70
2019-05-22T15:18:02.437Z,28.70
2019-05-22T15:20:36.402Z,28.70
2019-05-22T15:23:10.311Z,28.70
2019-05-22T15:25:43.055Z,28.60
2019-05-22T15:28:15.629Z,28.60
2019-05-22T15:30:48.499Z,28.60
2019-05-22T15:33:21.017Z,28.60
2019-05-22T15:35:55.390Z,28.50
2019-05-22T15:38:28.756Z,28.50
2019-05-22T15:41:00.958Z,28.40
2019-05-22T15:43:34.618Z,28.40
2019-05-22T15:46:27.376Z,28.40
2019-05-22T15:49:00.798Z,28.40
2019-05-22T15:51:35.688Z,28.40
2019-05-22T15:54:10.143Z,28.40
2019-05-22T15:56:44.544Z,28.40
2019-05-22T15:59:18.548Z,28.40
2019-05-22T16:01:52.270Z,28.40
2019-05-22T16:04:26.260Z,28.30
2019-05-22T16:07:00.106Z,28.30
2019-05-22T16:09:34.412Z,28.30
2019-05-22T16:12:08.768Z,28.30
2019-05-22T16:14:42.623Z,28.30
2019-05-22T16:17:15.408Z,28.30
2019-05-22T16:19:48.592Z,28.20
2019-05-22T16:22:21.185Z,28.20
2019-05-22T16:24:53.792Z,28.20
2019-05-22T16:27:34.447Z,28.20
2019-05-22T16:30:08.955Z,28.10
2019-05-22T16:32:42.512Z,28.10
2019-05-22T16:35:15.427Z,28.20
2019-05-22T16:37:48.775Z,28.10
2019-05-22T16:40:21.936Z,28.10
2019-05-22T16:42:56.518Z,28.10
2019-05-22T16:45:30.692Z,28.00
2019-05-22T16:48:26.083Z,28.00
2019-05-22T16:50:45.984Z,28.00
2019-05-22T16:53:20.852Z,28.00
2019-05-22T16:55:53.354Z,28.00
2019-05-22T16:58:26.511Z,28.00
2019-05-22T17:01:02.119Z,28.00
2019-05-22T17:03:35.989Z,28.00
2019-05-22T17:06:08.725Z,28.00
2019-05-22T17:08:41.424Z,28.00
2019-05-22T17:11:13.988Z,28.00
2019-05-22T17:13:47.363Z,28.00
2019-05-22T17:16:20.067Z,28.00
2019-05-22T17:18:52.520Z,28.00
2019-05-22T17:21:25.269Z,28.00
2019-05-22T17:23:58.605Z,28.00
2019-05-22T17:26:31.453Z,28.00
2019-05-22T17:29:03.944Z,28.00
2019-05-22T17:31:36.836Z,27.90
2019-05-22T17:34:11.184Z,27.90
2019-05-22T17:36:44.543Z,27.90
2019-05-22T17:39:16.803Z,27.90
2019-05-22T17:41:49.207Z,27.90
2019-05-22T17:44:21.622Z,27.90
2019-05-22T17:46:54.267Z,27.90
2019-05-22T17:49:28.340Z,27.90
2019-05-22T17:52:01.446Z,27.90
2019-05-22T17:54:35.359Z,27.90
2019-05-22T17:57:09.106Z,27.90
2019-05-22T17:59:41.361Z,27.90
2019-05-22T18:02:15.007Z,27.90
2019-05-22T18:04:47.233Z,27.90
2019-05-22T18:07:19.633Z,27.90
2019-05-22T18:09:52.096Z,27.90
2019-05-22T18:12:24.230Z,27.90
2019-05-22T18:14:56.384Z,27.90
2019-05-22T18:17:28.618Z,27.90
2019-05-22T18:20:00.752Z,27.90
2019-05-22T18:22:33.203Z,27.90
2019-05-22T18:25:07.592Z,27.90
2019-05-22T18:27:39.803Z,27.90
2019-05-22T18:30:14.019Z,27.90
2019-05-22T18:32:46.440Z,27.90
2019-05-22T18:35:19.986Z,27.90
2019-05-22T18:37:52.099Z,27.90
2019-05-22T18:40:25.099Z,27.90
2019-05-22T18:42:57.477Z,28.00
2019-05-22T18:45:29.741Z,27.90
2019-05-22T18:48:02.119Z,27.90
2019-05-22T18:50:35.034Z,27.90
2019-05-22T18:53:07.318Z,27.90
2019-05-22T18:55:39.354Z,27.90
2019-05-22T18:58:11.722Z,27.80
2019-05-22T19:00:44.058Z,27.80
2019-05-22T19:03:16.225Z,27.70
2019-05-22T19:05:48.951Z,27.70
2019-05-22T19:08:21.519Z,27.70
2019-05-22T19:10:53.882Z,27.70
2019-05-22T19:13:27.019Z,27.70
2019-05-22T19:15:59.246Z,27.70
2019-05-22T19:18:31.295Z,27.70
2019-05-22T19:21:04.329Z,27.60
2019-05-22T19:23:36.446Z,27.60
2019-05-22T19:26:08.550Z,27.60
2019-05-22T19:28:43.921Z,27.60
2019-05-22T19:31:15.591Z,27.60
2019-05-22T19:33:48.308Z,27.60
2019-05-22T19:36:20.544Z,27.60
2019-05-22T19:38:52.566Z,27.60
2019-05-22T19:41:26.022Z,27.60
2019-05-22T19:43:59.063Z,27.60
2019-05-22T19:46:31.597Z,27.60
2019-05-22T19:49:04.076Z,27.50
2019-05-22T19:51:36.598Z,27.60
2019-05-22T19:54:10.230Z,27.60
2019-05-22T19:56:42.588Z,27.50
2019-05-22T19:59:15.027Z,27.50
2019-05-22T20:01:47.299Z,27.50
2019-05-22T20:04:20.516Z,27.60
2019-05-22T20:06:53.750Z,27.60
2019-05-22T20:09:27.380Z,27.60
2019-05-22T20:12:00.214Z,27.60
2019-05-22T20:14:33.244Z,27.60
2019-05-22T20:17:06.814Z,27.60
2019-05-22T20:19:39.443Z,27.60
2019-05-22T20:22:12.117Z,27.60
2019-05-22T20:24:44.659Z,27.60
2019-05-22T20:27:17.485Z,27.60
2019-05-22T20:29:49.517Z,27.60
2019-05-22T20:32:24.247Z,27.60
2019-05-22T20:34:56.887Z,27.60
2019-05-22T20:37:29.133Z,27.60
2019-05-22T20:40:02.290Z,27.60
2019-05-22T20:42:53.734Z,27.60
2019-05-22T20:45:26.898Z,27.70
2019-05-22T20:48:03.533Z,27.70
2019-05-22T20:50:36.783Z,27.70
2019-05-22T20:53:10.630Z,27.70
2019-05-22T20:55:45.283Z,27.70
2019-05-22T20:58:19.169Z,27.70
2019-05-22T21:00:53.530Z,27.70
2019-05-22T21:03:27.111Z,27.70
2019-05-22T21:06:01.009Z,27.70
2019-05-22T21:08:34.018Z,27.70
2019-05-22T21:11:06.612Z,27.70
2019-05-22T21:13:39.573Z,27.70
2019-05-22T21:16:11.930Z,27.80
2019-05-22T21:18:45.839Z,27.80
2019-05-22T21:21:19.557Z,27.80
2019-05-22T21:23:51.921Z,27.80
2019-05-22T21:26:24.188Z,27.80
2019-05-22T21:28:57.041Z,27.80
2019-05-22T21:31:31.053Z,27.80
2019-05-22T21:34:03.521Z,27.90
2019-05-22T21:36:35.716Z,27.90
2019-05-22T21:39:12.921Z,27.90
2019-05-22T21:41:45.651Z,27.90
2019-05-22T21:44:19.142Z,27.90
2019-05-22T21:46:52.010Z,27.90
2019-05-22T21:49:25.668Z,27.90
2019-05-22T21:51:58.149Z,27.90
2019-05-22T21:54:31.340Z,27.80
2019-05-22T21:57:05.417Z,27.80
2019-05-22T21:59:37.896Z,27.80
2019-05-22T22:02:32.353Z,27.80
2019-05-22T22:05:06.275Z,27.80
2019-05-22T22:07:38.928Z,27.70
2019-05-22T22:10:13.545Z,27.70
2019-05-22T22:12:49.331Z,27.70
2019-05-22T22:15:23.661Z,27.70
2019-05-22T22:17:56.369Z,27.60
2019-05-22T22:20:28.361Z,27.60
2019-05-22T22:23:01.894Z,27.60
2019-05-22T22:25:34.191Z,27.60
2019-05-22T22:28:06.319Z,27.60
2019-05-22T22:30:40.148Z,27.60
2019-05-22T22:33:17.032Z,27.50
2019-05-22T22:35:50.951Z,27.60
2019-05-22T22:38:26.397Z,27.50
2019-05-22T22:41:00.696Z,27.50
2019-05-22T22:43:34.814Z,27.50
2019-05-22T22:46:09.090Z,27.40
2019-05-22T22:48:42.893Z,27.40
2019-05-22T22:51:16.822Z,27.40
2019-05-22T22:53:49.288Z,27.40
2019-05-22T22:56:22.958Z,27.40
2019-05-22T22:58:55.963Z,27.30
2019-05-22T23:01:32.462Z,27.30
2019-05-22T23:04:07.540Z,27.30
2019-05-22T23:06:40.074Z,27.20
2019-05-22T23:09:13.826Z,27.20
2019-05-22T23:12:05.564Z,27.20
2019-05-22T23:14:42.137Z,27.20
2019-05-22T23:17:15.933Z,27.20
2019-05-22T23:19:47.900Z,27.20
2019-05-22T23:22:19.259Z,27.20
2019-05-22T23:24:52.964Z,27.20
2019-05-22T23:27:26.430Z,27.20
2019-05-22T23:29:59.099Z,27.20
2019-05-22T23:32:32.300Z,27.20
2019-05-22T23:35:05.087Z,27.30
2019-05-22T23:37:38.414Z,27.30
2019-05-22T23:40:12.280Z,27.30
2019-05-22T23:42:46.947Z,27.30
2019-05-22T23:45:21.989Z,27.40
2019-05-22T23:47:58.049Z,27.40
2019-05-22T23:50:33.078Z,27.50
2019-05-22T23:53:06.541Z,27.50
2019-05-22T23:55:40.110Z,27.60
2019-05-22T23:58:15.661Z,27.60
